KLWT/LWT METAR and TAF weather

Enter ICAO airport designator
Station Type Date Time Source
KLWT METAR 2022/01/29 10:54 UTC NOAA

KLWT 291054Z AUTO 23010KT 10SM CLR 00/M11 A3009 RMK AO2 SLP208 T00001111


Station Type Date Time Source
KLWT Decoded METAR 2022/01/29 10:54 UTC NOAA

LEWISTOWN MUNICIPAL AIRPORT , MT, United States (KLWT) 47-03N 109-27W
Jan 29, 2022 - 05:54 AM EST / 2022.01.29 1054 UTC
Wind: from the SW (230 degrees) at 12 MPH (10 KT):0
Visibility: 10 mile(s):0
Sky conditions: clear
Temperature: 32.0 F (0.0 C)
Windchill: 23 F (-5 C):1
Dew Point: 12.0 F (-11.1 C)
Relative Humidity: 42%
Pressure (altimeter): 30.09 in. Hg (1018 hPa)
ob: KLWT 291054Z AUTO 23010KT 10SM CLR 00/M11 A3009 RMK AO2 SLP208 T00001111
cycle: 11

Station Type Date Time Source
KLWT TAF 2022/01/29 06:22 UTC NOAA

TAF KLWT 290520Z 2906/3006 24013KT P6SM SCT250 WS020/29045KT
FM291800 26011G25KT P6SM SCT250
FM300000 25010G22KT P6SM SCT250

Example: see airport list